<?xml version="1.0" encoding="UTF-8" standalone="no" ?>
<gpx xmlns="http://www.topografix.com/GPX/1/1" xmlns:xsi="http://www.w3.org/2001/XMLSchema-instance" xsi:schemaLocation="http://www.topografix.com/GPX/1/1 http://www.topografix.com/GPX/1/1/gpx.xsd" version="1.1" creator="VisuGPX - https://www.visugpx.com">
  <metadata>
    <name>Col de l\'aigleton, Couloir du Pin</name>
    <desc><![CDATA[Au départ de Prabert, prendre la route forestière D528 qui longe le GR . Prendre la direction du habert de Aiguebelle. Direction le Col de la Pra puis obliquer sur la droite de la dent du Pra. ]]></desc>
  </metadata>
  <trk>
    <name><![CDATA[Col de l'Aigleton, Couloir du Pin]]></name>
    <trkseg>
      <trkpt lat="45.24448" lon="5.97918">
        <ele>1087.199951172</ele>
        <time>2011-12-26T08:23:01Z</time>
      </trkpt>
      <trkpt lat="45.24236" lon="5.98027">
        <ele>1107</ele>
        <time>2011-12-26T08:26:56Z</time>
      </trkpt>
      <trkpt lat="45.24239" lon="5.98026">
        <ele>1107</ele>
        <time>2011-12-26T08:27:00Z</time>
      </trkpt>
      <trkpt lat="45.2421" lon="5.98037">
        <ele>1105.199951172</ele>
        <time>2011-12-26T08:27:37Z</time>
      </trkpt>
      <trkpt lat="45.24153" lon="5.98107">
        <ele>1113</ele>
        <time>2011-12-26T08:28:46Z</time>
      </trkpt>
      <trkpt lat="45.24124" lon="5.98119">
        <ele>1109.400024414</ele>
        <time>2011-12-26T08:29:14Z</time>
      </trkpt>
      <trkpt lat="45.24104" lon="5.98141">
        <ele>1111</ele>
        <time>2011-12-26T08:29:36Z</time>
      </trkpt>
      <trkpt lat="45.24092" lon="5.98173">
        <ele>1117.199951172</ele>
        <time>2011-12-26T08:30:00Z</time>
      </trkpt>
      <trkpt lat="45.24087" lon="5.98232">
        <ele>1130</ele>
        <time>2011-12-26T08:30:38Z</time>
      </trkpt>
      <trkpt lat="45.24066" lon="5.98283">
        <ele>1138.800048828</ele>
        <time>2011-12-26T08:31:17Z</time>
      </trkpt>
      <trkpt lat="45.24054" lon="5.98297">
        <ele>1141.199951172</ele>
        <time>2011-12-26T08:31:31Z</time>
      </trkpt>
      <trkpt lat="45.24026" lon="5.98311">
        <ele>1142.400024414</ele>
        <time>2011-12-26T08:32:01Z</time>
      </trkpt>
      <trkpt lat="45.23978" lon="5.98308">
        <ele>1135.800048828</ele>
        <time>2011-12-26T08:32:49Z</time>
      </trkpt>
      <trkpt lat="45.23913" lon="5.9838">
        <ele>1149.400024414</ele>
        <time>2011-12-26T08:34:09Z</time>
      </trkpt>
      <trkpt lat="45.23903" lon="5.9842">
        <ele>1160.800048828</ele>
        <time>2011-12-26T08:34:37Z</time>
      </trkpt>
      <trkpt lat="45.23881" lon="5.98442">
        <ele>1167.400024414</ele>
        <time>2011-12-26T08:35:04Z</time>
      </trkpt>
      <trkpt lat="45.23799" lon="5.98433">
        <ele>1163.199951172</ele>
        <time>2011-12-26T08:36:23Z</time>
      </trkpt>
      <trkpt lat="45.23778" lon="5.98438">
        <ele>1164.199951172</ele>
        <time>2011-12-26T08:36:44Z</time>
      </trkpt>
      <trkpt lat="45.23704" lon="5.98493">
        <ele>1178.800048828</ele>
        <time>2011-12-26T08:38:15Z</time>
      </trkpt>
      <trkpt lat="45.23688" lon="5.98498">
        <ele>1180</ele>
        <time>2011-12-26T08:38:29Z</time>
      </trkpt>
      <trkpt lat="45.23664" lon="5.9849">
        <ele>1175.400024414</ele>
        <time>2011-12-26T08:38:55Z</time>
      </trkpt>
      <trkpt lat="45.23633" lon="5.98491">
        <ele>1175</ele>
        <time>2011-12-26T08:39:24Z</time>
      </trkpt>
      <trkpt lat="45.23557" lon="5.98542">
        <ele>1191</ele>
        <time>2011-12-26T08:40:48Z</time>
      </trkpt>
      <trkpt lat="45.23458" lon="5.98695">
        <ele>1210.800048828</ele>
        <time>2011-12-26T08:43:13Z</time>
      </trkpt>
      <trkpt lat="45.23424" lon="5.98757">
        <ele>1216.400024414</ele>
        <time>2011-12-26T08:44:05Z</time>
      </trkpt>
      <trkpt lat="45.23291" lon="5.98866">
        <ele>1235</ele>
        <time>2011-12-26T08:46:41Z</time>
      </trkpt>
      <trkpt lat="45.23233" lon="5.98876">
        <ele>1236.599975586</ele>
        <time>2011-12-26T08:47:42Z</time>
      </trkpt>
      <trkpt lat="45.23203" lon="5.98904">
        <ele>1241</ele>
        <time>2011-12-26T08:48:18Z</time>
      </trkpt>
      <trkpt lat="45.23152" lon="5.99015">
        <ele>1256.199951172</ele>
        <time>2011-12-26T08:49:50Z</time>
      </trkpt>
      <trkpt lat="45.23137" lon="5.99068">
        <ele>1264.599975586</ele>
        <time>2011-12-26T08:50:44Z</time>
      </trkpt>
      <trkpt lat="45.2312" lon="5.99093">
        <ele>1268.400024414</ele>
        <time>2011-12-26T08:51:10Z</time>
      </trkpt>
      <trkpt lat="45.22958" lon="5.99163">
        <ele>1275.599975586</ele>
        <time>2011-12-26T08:54:02Z</time>
      </trkpt>
      <trkpt lat="45.22917" lon="5.99165">
        <ele>1271.599975586</ele>
        <time>2011-12-26T08:54:45Z</time>
      </trkpt>
      <trkpt lat="45.22863" lon="5.99235">
        <ele>1282.800048828</ele>
        <time>2011-12-26T08:56:03Z</time>
      </trkpt>
      <trkpt lat="45.22796" lon="5.99291">
        <ele>1290.199951172</ele>
        <time>2011-12-26T08:57:21Z</time>
      </trkpt>
      <trkpt lat="45.2275" lon="5.99347">
        <ele>1306.199951172</ele>
        <time>2011-12-26T08:58:25Z</time>
      </trkpt>
      <trkpt lat="45.2268" lon="5.99407">
        <ele>1315</ele>
        <time>2011-12-26T08:59:46Z</time>
      </trkpt>
      <trkpt lat="45.22639" lon="5.99433">
        <ele>1318</ele>
        <time>2011-12-26T09:00:40Z</time>
      </trkpt>
      <trkpt lat="45.22571" lon="5.99525">
        <ele>1330.599975586</ele>
        <time>2011-12-26T09:02:16Z</time>
      </trkpt>
      <trkpt lat="45.22558" lon="5.99533">
        <ele>1329.199951172</ele>
        <time>2011-12-26T09:02:32Z</time>
      </trkpt>
      <trkpt lat="45.22514" lon="5.99597">
        <ele>1326.599975586</ele>
        <time>2011-12-26T09:03:36Z</time>
      </trkpt>
      <trkpt lat="45.2251" lon="5.99637">
        <ele>1331.800048828</ele>
        <time>2011-12-26T09:04:05Z</time>
      </trkpt>
      <trkpt lat="45.22514" lon="5.99678">
        <ele>1341</ele>
        <time>2011-12-26T09:04:36Z</time>
      </trkpt>
      <trkpt lat="45.22496" lon="5.99801">
        <ele>1354</ele>
        <time>2011-12-26T09:06:03Z</time>
      </trkpt>
      <trkpt lat="45.22487" lon="5.9982">
        <ele>1356.199951172</ele>
        <time>2011-12-26T09:06:19Z</time>
      </trkpt>
      <trkpt lat="45.22449" lon="5.99851">
        <ele>1358.599975586</ele>
        <time>2011-12-26T09:07:02Z</time>
      </trkpt>
      <trkpt lat="45.22446" lon="5.99893">
        <ele>1368</ele>
        <time>2011-12-26T09:07:39Z</time>
      </trkpt>
      <trkpt lat="45.22449" lon="5.99889">
        <ele>1367.599975586</ele>
        <time>2011-12-26T09:08:01Z</time>
      </trkpt>
      <trkpt lat="45.22455" lon="5.99958">
        <ele>1379.400024414</ele>
        <time>2011-12-26T09:10:03Z</time>
      </trkpt>
      <trkpt lat="45.22432" lon="6.00022">
        <ele>1381.800048828</ele>
        <time>2011-12-26T09:11:16Z</time>
      </trkpt>
      <trkpt lat="45.2242" lon="6.00079">
        <ele>1392.199951172</ele>
        <time>2011-12-26T09:12:30Z</time>
      </trkpt>
      <trkpt lat="45.22399" lon="6.00114">
        <ele>1402.400024414</ele>
        <time>2011-12-26T09:13:56Z</time>
      </trkpt>
      <trkpt lat="45.22368" lon="6.00138">
        <ele>1408.199951172</ele>
        <time>2011-12-26T09:14:52Z</time>
      </trkpt>
      <trkpt lat="45.22364" lon="6.00159">
        <ele>1411.199951172</ele>
        <time>2011-12-26T09:15:21Z</time>
      </trkpt>
      <trkpt lat="45.22331" lon="6.00202">
        <ele>1416.599975586</ele>
        <time>2011-12-26T09:16:11Z</time>
      </trkpt>
      <trkpt lat="45.2231" lon="6.00208">
        <ele>1424</ele>
        <time>2011-12-26T09:16:35Z</time>
      </trkpt>
      <trkpt lat="45.22304" lon="6.00241">
        <ele>1429.400024414</ele>
        <time>2011-12-26T09:17:17Z</time>
      </trkpt>
      <trkpt lat="45.22318" lon="6.00294">
        <ele>1432.599975586</ele>
        <time>2011-12-26T09:18:20Z</time>
      </trkpt>
      <trkpt lat="45.22311" lon="6.00348">
        <ele>1441.599975586</ele>
        <time>2011-12-26T09:19:17Z</time>
      </trkpt>
      <trkpt lat="45.2228" lon="6.00404">
        <ele>1457.199951172</ele>
        <time>2011-12-26T09:20:45Z</time>
      </trkpt>
      <trkpt lat="45.22271" lon="6.00431">
        <ele>1464.599975586</ele>
        <time>2011-12-26T09:21:24Z</time>
      </trkpt>
      <trkpt lat="45.2224" lon="6.00433">
        <ele>1472</ele>
        <time>2011-12-26T09:22:19Z</time>
      </trkpt>
      <trkpt lat="45.22237" lon="6.00463">
        <ele>1479.800048828</ele>
        <time>2011-12-26T09:22:55Z</time>
      </trkpt>
      <trkpt lat="45.22223" lon="6.00506">
        <ele>1494.400024414</ele>
        <time>2011-12-26T09:23:54Z</time>
      </trkpt>
      <trkpt lat="45.22231" lon="6.00591">
        <ele>1514.599975586</ele>
        <time>2011-12-26T09:25:35Z</time>
      </trkpt>
      <trkpt lat="45.22245" lon="6.0064">
        <ele>1523</ele>
        <time>2011-12-26T09:26:36Z</time>
      </trkpt>
      <trkpt lat="45.22247" lon="6.00671">
        <ele>1529.400024414</ele>
        <time>2011-12-26T09:27:08Z</time>
      </trkpt>
      <trkpt lat="45.22238" lon="6.0078">
        <ele>1553.800048828</ele>
        <time>2011-12-26T09:28:56Z</time>
      </trkpt>
      <trkpt lat="45.22226" lon="6.00825">
        <ele>1565.199951172</ele>
        <time>2011-12-26T09:29:59Z</time>
      </trkpt>
      <trkpt lat="45.22245" lon="6.00876">
        <ele>1574.800048828</ele>
        <time>2011-12-26T09:31:02Z</time>
      </trkpt>
      <trkpt lat="45.22245" lon="6.00924">
        <ele>1585</ele>
        <time>2011-12-26T09:31:58Z</time>
      </trkpt>
      <trkpt lat="45.22232" lon="6.00929">
        <ele>1587.400024414</ele>
        <time>2011-12-26T09:32:21Z</time>
      </trkpt>
      <trkpt lat="45.22237" lon="6.0104">
        <ele>1606.599975586</ele>
        <time>2011-12-26T09:34:16Z</time>
      </trkpt>
      <trkpt lat="45.22233" lon="6.01064">
        <ele>1610.599975586</ele>
        <time>2011-12-26T09:34:36Z</time>
      </trkpt>
      <trkpt lat="45.22236" lon="6.01104">
        <ele>1616.800048828</ele>
        <time>2011-12-26T09:35:14Z</time>
      </trkpt>
      <trkpt lat="45.22248" lon="6.01157">
        <ele>1624.599975586</ele>
        <time>2011-12-26T09:36:04Z</time>
      </trkpt>
      <trkpt lat="45.22264" lon="6.01188">
        <ele>1634.599975586</ele>
        <time>2011-12-26T09:36:35Z</time>
      </trkpt>
      <trkpt lat="45.22262" lon="6.01212">
        <ele>1638.400024414</ele>
        <time>2011-12-26T09:36:54Z</time>
      </trkpt>
      <trkpt lat="45.22245" lon="6.01229">
        <ele>1637.599975586</ele>
        <time>2011-12-26T09:37:16Z</time>
      </trkpt>
      <trkpt lat="45.22231" lon="6.01276">
        <ele>1646.400024414</ele>
        <time>2011-12-26T09:38:07Z</time>
      </trkpt>
      <trkpt lat="45.22233" lon="6.01292">
        <ele>1650.199951172</ele>
        <time>2011-12-26T09:38:22Z</time>
      </trkpt>
      <trkpt lat="45.22248" lon="6.01307">
        <ele>1655.400024414</ele>
        <time>2011-12-26T09:38:52Z</time>
      </trkpt>
      <trkpt lat="45.22281" lon="6.01301">
        <ele>1664.800048828</ele>
        <time>2011-12-26T09:39:37Z</time>
      </trkpt>
      <trkpt lat="45.22276" lon="6.01359">
        <ele>1676</ele>
        <time>2011-12-26T09:40:27Z</time>
      </trkpt>
      <trkpt lat="45.22238" lon="6.0139">
        <ele>1671</ele>
        <time>2011-12-26T09:41:14Z</time>
      </trkpt>
      <trkpt lat="45.22229" lon="6.01425">
        <ele>1675</ele>
        <time>2011-12-26T09:41:48Z</time>
      </trkpt>
      <trkpt lat="45.22238" lon="6.01457">
        <ele>1680</ele>
        <time>2011-12-26T09:42:08Z</time>
      </trkpt>
      <trkpt lat="45.22281" lon="6.0179">
        <ele>1698.599975586</ele>
        <time>2011-12-26T09:45:37Z</time>
      </trkpt>
      <trkpt lat="45.22273" lon="6.01828">
        <ele>1699.599975586</ele>
        <time>2011-12-26T09:46:07Z</time>
      </trkpt>
      <trkpt lat="45.22267" lon="6.01833">
        <ele>1697.400024414</ele>
        <time>2011-12-26T09:46:17Z</time>
      </trkpt>
      <trkpt lat="45.22259" lon="6.01858">
        <ele>1696.199951172</ele>
        <time>2011-12-26T09:46:35Z</time>
      </trkpt>
      <trkpt lat="45.22259" lon="6.01971">
        <ele>1708.400024414</ele>
        <time>2011-12-26T09:47:50Z</time>
      </trkpt>
      <trkpt lat="45.22253" lon="6.01979">
        <ele>1707</ele>
        <time>2011-12-26T09:47:55Z</time>
      </trkpt>
      <trkpt lat="45.22247" lon="6.02022">
        <ele>1711.800048828</ele>
        <time>2011-12-26T09:48:33Z</time>
      </trkpt>
      <trkpt lat="45.22265" lon="6.02097">
        <ele>1724.800048828</ele>
        <time>2011-12-26T09:52:21Z</time>
      </trkpt>
      <trkpt lat="45.22259" lon="6.02099">
        <ele>1723.800048828</ele>
        <time>2011-12-26T09:54:02Z</time>
      </trkpt>
      <trkpt lat="45.22264" lon="6.021">
        <ele>1725</ele>
        <time>2011-12-26T09:54:49Z</time>
      </trkpt>
      <trkpt lat="45.22258" lon="6.02094">
        <ele>1723</ele>
        <time>2011-12-26T09:55:49Z</time>
      </trkpt>
      <trkpt lat="45.22279" lon="6.02116">
        <ele>1729.400024414</ele>
        <time>2011-12-26T09:56:23Z</time>
      </trkpt>
      <trkpt lat="45.22294" lon="6.02161">
        <ele>1735.400024414</ele>
        <time>2011-12-26T09:57:04Z</time>
      </trkpt>
      <trkpt lat="45.22352" lon="6.02278">
        <ele>1765.599975586</ele>
        <time>2011-12-26T09:59:30Z</time>
      </trkpt>
      <trkpt lat="45.2239" lon="6.02311">
        <ele>1783.800048828</ele>
        <time>2011-12-26T10:00:37Z</time>
      </trkpt>
      <trkpt lat="45.22402" lon="6.02331">
        <ele>1789.800048828</ele>
        <time>2011-12-26T10:01:01Z</time>
      </trkpt>
      <trkpt lat="45.22397" lon="6.02342">
        <ele>1789.599975586</ele>
        <time>2011-12-26T10:01:22Z</time>
      </trkpt>
      <trkpt lat="45.22405" lon="6.02376">
        <ele>1795.199951172</ele>
        <time>2011-12-26T10:02:07Z</time>
      </trkpt>
      <trkpt lat="45.22431" lon="6.02392">
        <ele>1806</ele>
        <time>2011-12-26T10:02:55Z</time>
      </trkpt>
      <trkpt lat="45.22439" lon="6.02388">
        <ele>1809.199951172</ele>
        <time>2011-12-26T10:03:14Z</time>
      </trkpt>
      <trkpt lat="45.2245" lon="6.02408">
        <ele>1815</ele>
        <time>2011-12-26T10:03:48Z</time>
      </trkpt>
      <trkpt lat="45.22457" lon="6.02395">
        <ele>1816.800048828</ele>
        <time>2011-12-26T10:04:06Z</time>
      </trkpt>
      <trkpt lat="45.22468" lon="6.02423">
        <ele>1823.199951172</ele>
        <time>2011-12-26T10:04:43Z</time>
      </trkpt>
      <trkpt lat="45.22478" lon="6.02388">
        <ele>1825.400024414</ele>
        <time>2011-12-26T10:05:27Z</time>
      </trkpt>
      <trkpt lat="45.22576" lon="6.02459">
        <ele>1857.400024414</ele>
        <time>2011-12-26T10:07:49Z</time>
      </trkpt>
      <trkpt lat="45.22604" lon="6.02519">
        <ele>1863.800048828</ele>
        <time>2011-12-26T10:08:39Z</time>
      </trkpt>
      <trkpt lat="45.22588" lon="6.02569">
        <ele>1863.800048828</ele>
        <time>2011-12-26T10:09:57Z</time>
      </trkpt>
      <trkpt lat="45.2259" lon="6.02592">
        <ele>1866.400024414</ele>
        <time>2011-12-26T10:11:11Z</time>
      </trkpt>
      <trkpt lat="45.22603" lon="6.02606">
        <ele>1870.400024414</ele>
        <time>2011-12-26T10:11:42Z</time>
      </trkpt>
      <trkpt lat="45.22601" lon="6.0261">
        <ele>1870.599975586</ele>
        <time>2011-12-26T10:11:57Z</time>
      </trkpt>
      <trkpt lat="45.22604" lon="6.02602">
        <ele>1870</ele>
        <time>2011-12-26T10:12:16Z</time>
      </trkpt>
      <trkpt lat="45.22601" lon="6.026">
        <ele>1869.199951172</ele>
        <time>2011-12-26T10:12:28Z</time>
      </trkpt>
      <trkpt lat="45.22596" lon="6.02656">
        <ele>1876</ele>
        <time>2011-12-26T10:17:05Z</time>
      </trkpt>
      <trkpt lat="45.22571" lon="6.02722">
        <ele>1892.599975586</ele>
        <time>2011-12-26T10:18:13Z</time>
      </trkpt>
      <trkpt lat="45.22543" lon="6.0275">
        <ele>1901.400024414</ele>
        <time>2011-12-26T10:19:15Z</time>
      </trkpt>
      <trkpt lat="45.22552" lon="6.02758">
        <ele>1904.800048828</ele>
        <time>2011-12-26T10:20:37Z</time>
      </trkpt>
      <trkpt lat="45.22539" lon="6.02773">
        <ele>1912</ele>
        <time>2011-12-26T10:21:11Z</time>
      </trkpt>
      <trkpt lat="45.22549" lon="6.02779">
        <ele>1914.400024414</ele>
        <time>2011-12-26T10:21:36Z</time>
      </trkpt>
      <trkpt lat="45.22541" lon="6.0279">
        <ele>1919.800048828</ele>
        <time>2011-12-26T10:22:03Z</time>
      </trkpt>
      <trkpt lat="45.22583" lon="6.02808">
        <ele>1924.800048828</ele>
        <time>2011-12-26T10:24:08Z</time>
      </trkpt>
      <trkpt lat="45.22578" lon="6.02812">
        <ele>1926.599975586</ele>
        <time>2011-12-26T10:24:35Z</time>
      </trkpt>
      <trkpt lat="45.22582" lon="6.02806">
        <ele>1924</ele>
        <time>2011-12-26T10:25:22Z</time>
      </trkpt>
      <trkpt lat="45.22593" lon="6.0281">
        <ele>1924.800048828</ele>
        <time>2011-12-26T10:27:42Z</time>
      </trkpt>
      <trkpt lat="45.22586" lon="6.02808">
        <ele>1924.400024414</ele>
        <time>2011-12-26T10:28:10Z</time>
      </trkpt>
      <trkpt lat="45.226" lon="6.02822">
        <ele>1928.599975586</ele>
        <time>2011-12-26T10:30:49Z</time>
      </trkpt>
      <trkpt lat="45.22599" lon="6.02876">
        <ele>1947.199951172</ele>
        <time>2011-12-26T10:31:51Z</time>
      </trkpt>
      <trkpt lat="45.22558" lon="6.02925">
        <ele>1965</ele>
        <time>2011-12-26T10:33:20Z</time>
      </trkpt>
      <trkpt lat="45.22565" lon="6.02981">
        <ele>1979.800048828</ele>
        <time>2011-12-26T10:34:31Z</time>
      </trkpt>
      <trkpt lat="45.22572" lon="6.02988">
        <ele>1981.400024414</ele>
        <time>2011-12-26T10:34:50Z</time>
      </trkpt>
      <trkpt lat="45.22581" lon="6.03038">
        <ele>1995.199951172</ele>
        <time>2011-12-26T10:36:01Z</time>
      </trkpt>
      <trkpt lat="45.22605" lon="6.0307">
        <ele>2007.599975586</ele>
        <time>2011-12-26T10:36:57Z</time>
      </trkpt>
      <trkpt lat="45.22648" lon="6.03073">
        <ele>2015.800048828</ele>
        <time>2011-12-26T10:38:22Z</time>
      </trkpt>
      <trkpt lat="45.22645" lon="6.03101">
        <ele>2024</ele>
        <time>2011-12-26T10:39:10Z</time>
      </trkpt>
      <trkpt lat="45.22663" lon="6.03085">
        <ele>2021.800048828</ele>
        <time>2011-12-26T10:39:48Z</time>
      </trkpt>
      <trkpt lat="45.22697" lon="6.03089">
        <ele>2030</ele>
        <time>2011-12-26T10:41:01Z</time>
      </trkpt>
      <trkpt lat="45.22718" lon="6.03117">
        <ele>2042.400024414</ele>
        <time>2011-12-26T10:41:51Z</time>
      </trkpt>
      <trkpt lat="45.22736" lon="6.03172">
        <ele>2063</ele>
        <time>2011-12-26T10:43:00Z</time>
      </trkpt>
      <trkpt lat="45.22748" lon="6.03173">
        <ele>2065.600097656</ele>
        <time>2011-12-26T10:43:29Z</time>
      </trkpt>
      <trkpt lat="45.22757" lon="6.03183">
        <ele>2071</ele>
        <time>2011-12-26T10:43:48Z</time>
      </trkpt>
      <trkpt lat="45.22755" lon="6.03219">
        <ele>2081.600097656</ele>
        <time>2011-12-26T10:44:39Z</time>
      </trkpt>
      <trkpt lat="45.22768" lon="6.03222">
        <ele>2087.600097656</ele>
        <time>2011-12-26T10:45:09Z</time>
      </trkpt>
      <trkpt lat="45.22761" lon="6.0324">
        <ele>2090.399902344</ele>
        <time>2011-12-26T10:45:36Z</time>
      </trkpt>
      <trkpt lat="45.22781" lon="6.03234">
        <ele>2096</ele>
        <time>2011-12-26T10:46:14Z</time>
      </trkpt>
      <trkpt lat="45.22777" lon="6.03254">
        <ele>2101.399902344</ele>
        <time>2011-12-26T10:46:36Z</time>
      </trkpt>
      <trkpt lat="45.22766" lon="6.03264">
        <ele>2100.800048828</ele>
        <time>2011-12-26T10:46:56Z</time>
      </trkpt>
      <trkpt lat="45.22793" lon="6.03256">
        <ele>2108.399902344</ele>
        <time>2011-12-26T10:47:43Z</time>
      </trkpt>
      <trkpt lat="45.22789" lon="6.03273">
        <ele>2113</ele>
        <time>2011-12-26T10:48:03Z</time>
      </trkpt>
      <trkpt lat="45.22799" lon="6.03268">
        <ele>2114.800048828</ele>
        <time>2011-12-26T10:48:26Z</time>
      </trkpt>
      <trkpt lat="45.22796" lon="6.03287">
        <ele>2120</ele>
        <time>2011-12-26T10:49:09Z</time>
      </trkpt>
      <trkpt lat="45.22818" lon="6.03273">
        <ele>2123.600097656</ele>
        <time>2011-12-26T10:50:00Z</time>
      </trkpt>
      <trkpt lat="45.22819" lon="6.03281">
        <ele>2126.199951172</ele>
        <time>2011-12-26T10:50:10Z</time>
      </trkpt>
      <trkpt lat="45.22825" lon="6.03276">
        <ele>2127</ele>
        <time>2011-12-26T10:50:29Z</time>
      </trkpt>
      <trkpt lat="45.22828" lon="6.03297">
        <ele>2134.199951172</ele>
        <time>2011-12-26T10:51:03Z</time>
      </trkpt>
      <trkpt lat="45.22869" lon="6.03306">
        <ele>2147.800048828</ele>
        <time>2011-12-26T10:52:24Z</time>
      </trkpt>
      <trkpt lat="45.22887" lon="6.03325">
        <ele>2156</ele>
        <time>2011-12-26T10:53:03Z</time>
      </trkpt>
      <trkpt lat="45.22924" lon="6.03346">
        <ele>2170.600097656</ele>
        <time>2011-12-26T10:54:39Z</time>
      </trkpt>
      <trkpt lat="45.22927" lon="6.03342">
        <ele>2171.199951172</ele>
        <time>2011-12-26T10:54:48Z</time>
      </trkpt>
      <trkpt lat="45.22947" lon="6.0338">
        <ele>2185</ele>
        <time>2011-12-26T10:56:12Z</time>
      </trkpt>
      <trkpt lat="45.22996" lon="6.03439">
        <ele>2201.399902344</ele>
        <time>2011-12-26T10:59:17Z</time>
      </trkpt>
      <trkpt lat="45.23035" lon="6.03512">
        <ele>2229.399902344</ele>
        <time>2011-12-26T11:01:00Z</time>
      </trkpt>
      <trkpt lat="45.23036" lon="6.0356">
        <ele>2244.800048828</ele>
        <time>2011-12-26T11:02:44Z</time>
      </trkpt>
      <trkpt lat="45.23026" lon="6.0359">
        <ele>2251.800048828</ele>
        <time>2011-12-26T11:03:35Z</time>
      </trkpt>
      <trkpt lat="45.23057" lon="6.03584">
        <ele>2256.199951172</ele>
        <time>2011-12-26T11:04:49Z</time>
      </trkpt>
      <trkpt lat="45.23085" lon="6.03562">
        <ele>2260</ele>
        <time>2011-12-26T11:06:00Z</time>
      </trkpt>
      <trkpt lat="45.23097" lon="6.03532">
        <ele>2266</ele>
        <time>2011-12-26T11:06:47Z</time>
      </trkpt>
      <trkpt lat="45.23106" lon="6.03555">
        <ele>2271.399902344</ele>
        <time>2011-12-26T11:07:37Z</time>
      </trkpt>
      <trkpt lat="45.23118" lon="6.0354">
        <ele>2280</ele>
        <time>2011-12-26T11:08:09Z</time>
      </trkpt>
      <trkpt lat="45.23122" lon="6.03563">
        <ele>2280.199951172</ele>
        <time>2011-12-26T11:08:41Z</time>
      </trkpt>
      <trkpt lat="45.23133" lon="6.03553">
        <ele>2287.199951172</ele>
        <time>2011-12-26T11:09:14Z</time>
      </trkpt>
      <trkpt lat="45.23137" lon="6.03574">
        <ele>2286.399902344</ele>
        <time>2011-12-26T11:09:57Z</time>
      </trkpt>
      <trkpt lat="45.23127" lon="6.03635">
        <ele>2275.600097656</ele>
        <time>2011-12-26T11:11:05Z</time>
      </trkpt>
      <trkpt lat="45.23121" lon="6.03633">
        <ele>2274.600097656</ele>
        <time>2011-12-26T11:14:41Z</time>
      </trkpt>
      <trkpt lat="45.23137" lon="6.03626">
        <ele>2278.800048828</ele>
        <time>2011-12-26T11:15:52Z</time>
      </trkpt>
      <trkpt lat="45.23121" lon="6.03634">
        <ele>2274.399902344</ele>
        <time>2011-12-26T11:16:51Z</time>
      </trkpt>
      <trkpt lat="45.23111" lon="6.03618">
        <ele>2272.800048828</ele>
        <time>2011-12-26T11:18:06Z</time>
      </trkpt>
      <trkpt lat="45.23095" lon="6.03615">
        <ele>2268.199951172</ele>
        <time>2011-12-26T11:21:11Z</time>
      </trkpt>
      <trkpt lat="45.23099" lon="6.03615">
        <ele>2269.399902344</ele>
        <time>2011-12-26T11:22:21Z</time>
      </trkpt>
      <trkpt lat="45.23094" lon="6.03612">
        <ele>2267.800048828</ele>
        <time>2011-12-26T11:36:23Z</time>
      </trkpt>
      <trkpt lat="45.23096" lon="6.03616">
        <ele>2268.399902344</ele>
        <time>2011-12-26T11:39:53Z</time>
      </trkpt>
      <trkpt lat="45.23097" lon="6.0361">
        <ele>2268.399902344</ele>
        <time>2011-12-26T11:43:50Z</time>
      </trkpt>
      <trkpt lat="45.23095" lon="6.03614">
        <ele>2268.199951172</ele>
        <time>2011-12-26T11:47:09Z</time>
      </trkpt>
      <trkpt lat="45.23106" lon="6.0361">
        <ele>2271.199951172</ele>
        <time>2011-12-26T11:50:18Z</time>
      </trkpt>
      <trkpt lat="45.23121" lon="6.03627">
        <ele>2274.800048828</ele>
        <time>2011-12-26T11:51:00Z</time>
      </trkpt>
      <trkpt lat="45.2313" lon="6.03628">
        <ele>2276.800048828</ele>
        <time>2011-12-26T11:51:07Z</time>
      </trkpt>
      <trkpt lat="45.23135" lon="6.03592">
        <ele>2282.600097656</ele>
        <time>2011-12-26T11:51:20Z</time>
      </trkpt>
      <trkpt lat="45.23131" lon="6.03589">
        <ele>2281.399902344</ele>
        <time>2011-12-26T11:52:47Z</time>
      </trkpt>
      <trkpt lat="45.23138" lon="6.03591">
        <ele>2284.199951172</ele>
        <time>2011-12-26T11:55:16Z</time>
      </trkpt>
      <trkpt lat="45.23133" lon="6.03595">
        <ele>2281.600097656</ele>
        <time>2011-12-26T11:56:00Z</time>
      </trkpt>
      <trkpt lat="45.23137" lon="6.0359">
        <ele>2284</ele>
        <time>2011-12-26T11:57:09Z</time>
      </trkpt>
      <trkpt lat="45.23132" lon="6.0359">
        <ele>2281.800048828</ele>
        <time>2011-12-26T11:58:19Z</time>
      </trkpt>
      <trkpt lat="45.23147" lon="6.03583">
        <ele>2289.399902344</ele>
        <time>2011-12-26T11:59:12Z</time>
      </trkpt>
      <trkpt lat="45.23131" lon="6.03593">
        <ele>2281.199951172</ele>
        <time>2011-12-26T12:01:29Z</time>
      </trkpt>
      <trkpt lat="45.23134" lon="6.03591">
        <ele>2282.800048828</ele>
        <time>2011-12-26T12:01:57Z</time>
      </trkpt>
      <trkpt lat="45.23134" lon="6.03551">
        <ele>2288.199951172</ele>
        <time>2011-12-26T12:02:25Z</time>
      </trkpt>
      <trkpt lat="45.23118" lon="6.03521">
        <ele>2280.800048828</ele>
        <time>2011-12-26T12:02:33Z</time>
      </trkpt>
      <trkpt lat="45.23105" lon="6.03524">
        <ele>2271.399902344</ele>
        <time>2011-12-26T12:02:36Z</time>
      </trkpt>
      <trkpt lat="45.23091" lon="6.03564">
        <ele>2263.199951172</ele>
        <time>2011-12-26T12:02:42Z</time>
      </trkpt>
      <trkpt lat="45.23094" lon="6.03566">
        <ele>2265</ele>
        <time>2011-12-26T12:03:05Z</time>
      </trkpt>
      <trkpt lat="45.23073" lon="6.03593">
        <ele>2260.399902344</ele>
        <time>2011-12-26T12:03:23Z</time>
      </trkpt>
      <trkpt lat="45.23045" lon="6.03608">
        <ele>2258.800048828</ele>
        <time>2011-12-26T12:03:37Z</time>
      </trkpt>
      <trkpt lat="45.23011" lon="6.03606">
        <ele>2253.600097656</ele>
        <time>2011-12-26T12:03:53Z</time>
      </trkpt>
      <trkpt lat="45.23015" lon="6.03608">
        <ele>2254.600097656</ele>
        <time>2011-12-26T12:04:04Z</time>
      </trkpt>
      <trkpt lat="45.23009" lon="6.03503">
        <ele>2211.399902344</ele>
        <time>2011-12-26T12:04:41Z</time>
      </trkpt>
      <trkpt lat="45.23017" lon="6.03489">
        <ele>2215</ele>
        <time>2011-12-26T12:04:45Z</time>
      </trkpt>
      <trkpt lat="45.23009" lon="6.03489">
        <ele>2209.800048828</ele>
        <time>2011-12-26T12:05:27Z</time>
      </trkpt>
      <trkpt lat="45.22975" lon="6.03436">
        <ele>2197.399902344</ele>
        <time>2011-12-26T12:05:44Z</time>
      </trkpt>
      <trkpt lat="45.22942" lon="6.03416">
        <ele>2186.199951172</ele>
        <time>2011-12-26T12:05:50Z</time>
      </trkpt>
      <trkpt lat="45.22936" lon="6.03401">
        <ele>2183</ele>
        <time>2011-12-26T12:05:53Z</time>
      </trkpt>
      <trkpt lat="45.22915" lon="6.03382">
        <ele>2173</ele>
        <time>2011-12-26T12:05:59Z</time>
      </trkpt>
      <trkpt lat="45.22875" lon="6.0338">
        <ele>2174.800048828</ele>
        <time>2011-12-26T12:06:12Z</time>
      </trkpt>
      <trkpt lat="45.22878" lon="6.03371">
        <ele>2171.199951172</ele>
        <time>2011-12-26T12:06:59Z</time>
      </trkpt>
      <trkpt lat="45.2284" lon="6.0338">
        <ele>2176.600097656</ele>
        <time>2011-12-26T12:07:23Z</time>
      </trkpt>
      <trkpt lat="45.2283" lon="6.03375">
        <ele>2173.600097656</ele>
        <time>2011-12-26T12:07:26Z</time>
      </trkpt>
      <trkpt lat="45.22835" lon="6.03365">
        <ele>2166.800048828</ele>
        <time>2011-12-26T12:07:28Z</time>
      </trkpt>
      <trkpt lat="45.22831" lon="6.03348">
        <ele>2155.800048828</ele>
        <time>2011-12-26T12:07:32Z</time>
      </trkpt>
      <trkpt lat="45.22823" lon="6.03348">
        <ele>2156.800048828</ele>
        <time>2011-12-26T12:07:35Z</time>
      </trkpt>
      <trkpt lat="45.22836" lon="6.03342">
        <ele>2152.199951172</ele>
        <time>2011-12-26T12:07:46Z</time>
      </trkpt>
      <trkpt lat="45.22838" lon="6.03348">
        <ele>2156</ele>
        <time>2011-12-26T12:07:57Z</time>
      </trkpt>
      <trkpt lat="45.22828" lon="6.03332">
        <ele>2146.600097656</ele>
        <time>2011-12-26T12:08:40Z</time>
      </trkpt>
      <trkpt lat="45.2278" lon="6.03342">
        <ele>2159.199951172</ele>
        <time>2011-12-26T12:09:27Z</time>
      </trkpt>
      <trkpt lat="45.22723" lon="6.03327">
        <ele>2155.199951172</ele>
        <time>2011-12-26T12:09:40Z</time>
      </trkpt>
      <trkpt lat="45.22727" lon="6.0328">
        <ele>2114.399902344</ele>
        <time>2011-12-26T12:09:49Z</time>
      </trkpt>
      <trkpt lat="45.22662" lon="6.03212">
        <ele>2067.600097656</ele>
        <time>2011-12-26T12:10:05Z</time>
      </trkpt>
      <trkpt lat="45.22665" lon="6.03216">
        <ele>2069</ele>
        <time>2011-12-26T12:10:18Z</time>
      </trkpt>
      <trkpt lat="45.22644" lon="6.03201">
        <ele>2064.399902344</ele>
        <time>2011-12-26T12:10:45Z</time>
      </trkpt>
      <trkpt lat="45.22647" lon="6.03162">
        <ele>2043.199951172</ele>
        <time>2011-12-26T12:11:19Z</time>
      </trkpt>
      <trkpt lat="45.22634" lon="6.03152">
        <ele>2039</ele>
        <time>2011-12-26T12:11:48Z</time>
      </trkpt>
      <trkpt lat="45.22629" lon="6.03139">
        <ele>2034.400024414</ele>
        <time>2011-12-26T12:11:52Z</time>
      </trkpt>
      <trkpt lat="45.22612" lon="6.03127">
        <ele>2028.400024414</ele>
        <time>2011-12-26T12:11:55Z</time>
      </trkpt>
      <trkpt lat="45.22574" lon="6.03117">
        <ele>2023.199951172</ele>
        <time>2011-12-26T12:12:00Z</time>
      </trkpt>
      <trkpt lat="45.22539" lon="6.03092">
        <ele>2018.400024414</ele>
        <time>2011-12-26T12:12:10Z</time>
      </trkpt>
      <trkpt lat="45.2252" lon="6.03052">
        <ele>2006.199951172</ele>
        <time>2011-12-26T12:12:25Z</time>
      </trkpt>
      <trkpt lat="45.22524" lon="6.03055">
        <ele>2006.800048828</ele>
        <time>2011-12-26T12:13:34Z</time>
      </trkpt>
      <trkpt lat="45.22519" lon="6.03057">
        <ele>2007.800048828</ele>
        <time>2011-12-26T12:14:46Z</time>
      </trkpt>
      <trkpt lat="45.22524" lon="6.03055">
        <ele>2006.800048828</ele>
        <time>2011-12-26T12:19:48Z</time>
      </trkpt>
      <trkpt lat="45.22508" lon="6.03062">
        <ele>2011.199951172</ele>
        <time>2011-12-26T12:21:26Z</time>
      </trkpt>
      <trkpt lat="45.2251" lon="6.03076">
        <ele>2015.800048828</ele>
        <time>2011-12-26T12:21:50Z</time>
      </trkpt>
      <trkpt lat="45.22501" lon="6.03077">
        <ele>2017.599975586</ele>
        <time>2011-12-26T12:22:11Z</time>
      </trkpt>
      <trkpt lat="45.22509" lon="6.03103">
        <ele>2029</ele>
        <time>2011-12-26T12:23:33Z</time>
      </trkpt>
      <trkpt lat="45.22495" lon="6.03106">
        <ele>2034.599975586</ele>
        <time>2011-12-26T12:23:58Z</time>
      </trkpt>
      <trkpt lat="45.22504" lon="6.03128">
        <ele>2043.599975586</ele>
        <time>2011-12-26T12:24:46Z</time>
      </trkpt>
      <trkpt lat="45.22481" lon="6.03133">
        <ele>2054.600097656</ele>
        <time>2011-12-26T12:25:29Z</time>
      </trkpt>
      <trkpt lat="45.22495" lon="6.03151">
        <ele>2059.399902344</ele>
        <time>2011-12-26T12:26:11Z</time>
      </trkpt>
      <trkpt lat="45.22475" lon="6.03159">
        <ele>2072.600097656</ele>
        <time>2011-12-26T12:26:58Z</time>
      </trkpt>
      <trkpt lat="45.22479" lon="6.03166">
        <ele>2074.600097656</ele>
        <time>2011-12-26T12:27:17Z</time>
      </trkpt>
      <trkpt lat="45.22473" lon="6.03163">
        <ele>2075.800048828</ele>
        <time>2011-12-26T12:28:03Z</time>
      </trkpt>
      <trkpt lat="45.22484" lon="6.03173">
        <ele>2078</ele>
        <time>2011-12-26T12:28:43Z</time>
      </trkpt>
      <trkpt lat="45.22475" lon="6.03179">
        <ele>2086.199951172</ele>
        <time>2011-12-26T12:29:12Z</time>
      </trkpt>
      <trkpt lat="45.22482" lon="6.03186">
        <ele>2088.199951172</ele>
        <time>2011-12-26T12:29:33Z</time>
      </trkpt>
      <trkpt lat="45.22475" lon="6.03189">
        <ele>2093.399902344</ele>
        <time>2011-12-26T12:30:09Z</time>
      </trkpt>
      <trkpt lat="45.22483" lon="6.03201">
        <ele>2099.600097656</ele>
        <time>2011-12-26T12:30:41Z</time>
      </trkpt>
      <trkpt lat="45.22474" lon="6.03201">
        <ele>2102.800048828</ele>
        <time>2011-12-26T12:31:03Z</time>
      </trkpt>
      <trkpt lat="45.2248" lon="6.03197">
        <ele>2098</ele>
        <time>2011-12-26T12:31:21Z</time>
      </trkpt>
      <trkpt lat="45.22484" lon="6.03214">
        <ele>2109.199951172</ele>
        <time>2011-12-26T12:31:56Z</time>
      </trkpt>
      <trkpt lat="45.22477" lon="6.03197">
        <ele>2098.800048828</ele>
        <time>2011-12-26T12:32:29Z</time>
      </trkpt>
      <trkpt lat="45.22481" lon="6.03212">
        <ele>2108.600097656</ele>
        <time>2011-12-26T12:32:50Z</time>
      </trkpt>
      <trkpt lat="45.22484" lon="6.03209">
        <ele>2105.199951172</ele>
        <time>2011-12-26T12:32:56Z</time>
      </trkpt>
      <trkpt lat="45.22481" lon="6.03228">
        <ele>2121.199951172</ele>
        <time>2011-12-26T12:33:26Z</time>
      </trkpt>
      <trkpt lat="45.22477" lon="6.03221">
        <ele>2117</ele>
        <time>2011-12-26T12:33:38Z</time>
      </trkpt>
      <trkpt lat="45.2248" lon="6.03213">
        <ele>2109.600097656</ele>
        <time>2011-12-26T12:33:53Z</time>
      </trkpt>
      <trkpt lat="45.22488" lon="6.03238">
        <ele>2127.199951172</ele>
        <time>2011-12-26T12:34:26Z</time>
      </trkpt>
      <trkpt lat="45.2248" lon="6.03243">
        <ele>2132.600097656</ele>
        <time>2011-12-26T12:35:01Z</time>
      </trkpt>
      <trkpt lat="45.22485" lon="6.03255">
        <ele>2139</ele>
        <time>2011-12-26T12:35:57Z</time>
      </trkpt>
      <trkpt lat="45.22478" lon="6.03253">
        <ele>2139.600097656</ele>
        <time>2011-12-26T12:36:35Z</time>
      </trkpt>
      <trkpt lat="45.22486" lon="6.03255">
        <ele>2138.800048828</ele>
        <time>2011-12-26T12:37:20Z</time>
      </trkpt>
      <trkpt lat="45.22482" lon="6.03261">
        <ele>2142</ele>
        <time>2011-12-26T12:37:50Z</time>
      </trkpt>
      <trkpt lat="45.22486" lon="6.03265">
        <ele>2143</ele>
        <time>2011-12-26T12:38:37Z</time>
      </trkpt>
      <trkpt lat="45.22488" lon="6.03257">
        <ele>2139.199951172</ele>
        <time>2011-12-26T12:39:40Z</time>
      </trkpt>
      <trkpt lat="45.22484" lon="6.03265">
        <ele>2143.399902344</ele>
        <time>2011-12-26T12:40:16Z</time>
      </trkpt>
      <trkpt lat="45.2249" lon="6.03275">
        <ele>2146.600097656</ele>
        <time>2011-12-26T12:41:42Z</time>
      </trkpt>
      <trkpt lat="45.22489" lon="6.03266">
        <ele>2142.800048828</ele>
        <time>2011-12-26T12:42:07Z</time>
      </trkpt>
      <trkpt lat="45.22491" lon="6.03277">
        <ele>2147.399902344</ele>
        <time>2011-12-26T12:42:41Z</time>
      </trkpt>
      <trkpt lat="45.22494" lon="6.03263">
        <ele>2140.600097656</ele>
        <time>2011-12-26T12:42:51Z</time>
      </trkpt>
      <trkpt lat="45.22498" lon="6.03265">
        <ele>2140.600097656</ele>
        <time>2011-12-26T12:42:55Z</time>
      </trkpt>
      <trkpt lat="45.22484" lon="6.03284">
        <ele>2151.800048828</ele>
        <time>2011-12-26T12:43:55Z</time>
      </trkpt>
      <trkpt lat="45.22488" lon="6.03288">
        <ele>2152.600097656</ele>
        <time>2011-12-26T12:44:32Z</time>
      </trkpt>
      <trkpt lat="45.22482" lon="6.03292">
        <ele>2155.399902344</ele>
        <time>2011-12-26T12:44:57Z</time>
      </trkpt>
      <trkpt lat="45.22486" lon="6.033">
        <ele>2158.399902344</ele>
        <time>2011-12-26T12:45:40Z</time>
      </trkpt>
      <trkpt lat="45.2248" lon="6.03302">
        <ele>2160</ele>
        <time>2011-12-26T12:46:15Z</time>
      </trkpt>
      <trkpt lat="45.22483" lon="6.03317">
        <ele>2166</ele>
        <time>2011-12-26T12:47:15Z</time>
      </trkpt>
      <trkpt lat="45.22478" lon="6.03315">
        <ele>2165.600097656</ele>
        <time>2011-12-26T12:47:41Z</time>
      </trkpt>
      <trkpt lat="45.22486" lon="6.03315">
        <ele>2164.800048828</ele>
        <time>2011-12-26T12:48:19Z</time>
      </trkpt>
      <trkpt lat="45.22482" lon="6.03318">
        <ele>2166.600097656</ele>
        <time>2011-12-26T12:48:58Z</time>
      </trkpt>
      <trkpt lat="45.22485" lon="6.03323">
        <ele>2168.399902344</ele>
        <time>2011-12-26T12:49:47Z</time>
      </trkpt>
      <trkpt lat="45.22482" lon="6.03327">
        <ele>2170.399902344</ele>
        <time>2011-12-26T12:50:14Z</time>
      </trkpt>
      <trkpt lat="45.22488" lon="6.03326">
        <ele>2169.199951172</ele>
        <time>2011-12-26T12:51:29Z</time>
      </trkpt>
      <trkpt lat="45.22484" lon="6.03332">
        <ele>2172.600097656</ele>
        <time>2011-12-26T12:51:59Z</time>
      </trkpt>
      <trkpt lat="45.22489" lon="6.03336">
        <ele>2172</ele>
        <time>2011-12-26T12:52:23Z</time>
      </trkpt>
      <trkpt lat="45.22483" lon="6.03341">
        <ele>2170.800048828</ele>
        <time>2011-12-26T12:52:53Z</time>
      </trkpt>
      <trkpt lat="45.2249" lon="6.03341">
        <ele>2170.600097656</ele>
        <time>2011-12-26T12:54:06Z</time>
      </trkpt>
      <trkpt lat="45.22486" lon="6.03348">
        <ele>2168.600097656</ele>
        <time>2011-12-26T12:54:34Z</time>
      </trkpt>
      <trkpt lat="45.2249" lon="6.03348">
        <ele>2168.800048828</ele>
        <time>2011-12-26T12:55:04Z</time>
      </trkpt>
      <trkpt lat="45.22485" lon="6.03362">
        <ele>2165</ele>
        <time>2011-12-26T12:56:58Z</time>
      </trkpt>
      <trkpt lat="45.22497" lon="6.03362">
        <ele>2165.399902344</ele>
        <time>2011-12-26T12:58:36Z</time>
      </trkpt>
      <trkpt lat="45.22495" lon="6.03368">
        <ele>2163.800048828</ele>
        <time>2011-12-26T12:59:02Z</time>
      </trkpt>
      <trkpt lat="45.22506" lon="6.03355">
        <ele>2167.399902344</ele>
        <time>2011-12-26T13:00:44Z</time>
      </trkpt>
      <trkpt lat="45.2251" lon="6.03358">
        <ele>2167.399902344</ele>
        <time>2011-12-26T13:02:17Z</time>
      </trkpt>
      <trkpt lat="45.22493" lon="6.03376">
        <ele>2161.600097656</ele>
        <time>2011-12-26T13:06:57Z</time>
      </trkpt>
      <trkpt lat="45.225" lon="6.03363">
        <ele>2165.199951172</ele>
        <time>2011-12-26T13:10:41Z</time>
      </trkpt>
      <trkpt lat="45.22494" lon="6.03362">
        <ele>2165.199951172</ele>
        <time>2011-12-26T13:11:45Z</time>
      </trkpt>
      <trkpt lat="45.22503" lon="6.0336">
        <ele>2166.199951172</ele>
        <time>2011-12-26T13:13:48Z</time>
      </trkpt>
      <trkpt lat="45.22493" lon="6.03366">
        <ele>2164.199951172</ele>
        <time>2011-12-26T13:16:37Z</time>
      </trkpt>
      <trkpt lat="45.22501" lon="6.03365">
        <ele>2164.800048828</ele>
        <time>2011-12-26T13:19:07Z</time>
      </trkpt>
      <trkpt lat="45.22493" lon="6.03369">
        <ele>2163.399902344</ele>
        <time>2011-12-26T13:20:28Z</time>
      </trkpt>
      <trkpt lat="45.22497" lon="6.03362">
        <ele>2165.399902344</ele>
        <time>2011-12-26T13:21:14Z</time>
      </trkpt>
      <trkpt lat="45.22498" lon="6.03368">
        <ele>2164.199951172</ele>
        <time>2011-12-26T13:22:16Z</time>
      </trkpt>
      <trkpt lat="45.22499" lon="6.03363">
        <ele>2165.399902344</ele>
        <time>2011-12-26T13:22:51Z</time>
      </trkpt>
      <trkpt lat="45.22496" lon="6.03365">
        <ele>2164.600097656</ele>
        <time>2011-12-26T13:23:26Z</time>
      </trkpt>
      <trkpt lat="45.22499" lon="6.03365">
        <ele>2164.800048828</ele>
        <time>2011-12-26T13:24:20Z</time>
      </trkpt>
      <trkpt lat="45.22486" lon="6.0336">
        <ele>2165.399902344</ele>
        <time>2011-12-26T13:26:40Z</time>
      </trkpt>
      <trkpt lat="45.2249" lon="6.03356">
        <ele>2166.600097656</ele>
        <time>2011-12-26T13:26:52Z</time>
      </trkpt>
      <trkpt lat="45.22483" lon="6.03342">
        <ele>2170.399902344</ele>
        <time>2011-12-26T13:27:07Z</time>
      </trkpt>
      <trkpt lat="45.22487" lon="6.03343">
        <ele>2170.199951172</ele>
        <time>2011-12-26T13:27:17Z</time>
      </trkpt>
      <trkpt lat="45.22483" lon="6.03337">
        <ele>2171.800048828</ele>
        <time>2011-12-26T13:27:21Z</time>
      </trkpt>
      <trkpt lat="45.22487" lon="6.03322">
        <ele>2168</ele>
        <time>2011-12-26T13:27:57Z</time>
      </trkpt>
      <trkpt lat="45.22478" lon="6.0329">
        <ele>2155.199951172</ele>
        <time>2011-12-26T13:28:08Z</time>
      </trkpt>
      <trkpt lat="45.22487" lon="6.03295">
        <ele>2156.199951172</ele>
        <time>2011-12-26T13:29:38Z</time>
      </trkpt>
      <trkpt lat="45.22476" lon="6.03241">
        <ele>2131.800048828</ele>
        <time>2011-12-26T13:32:03Z</time>
      </trkpt>
      <trkpt lat="45.22488" lon="6.03224">
        <ele>2115.800048828</ele>
        <time>2011-12-26T13:32:07Z</time>
      </trkpt>
      <trkpt lat="45.22476" lon="6.03192">
        <ele>2095</ele>
        <time>2011-12-26T13:32:16Z</time>
      </trkpt>
      <trkpt lat="45.22478" lon="6.032">
        <ele>2101</ele>
        <time>2011-12-26T13:32:41Z</time>
      </trkpt>
      <trkpt lat="45.22483" lon="6.03153">
        <ele>2065.600097656</ele>
        <time>2011-12-26T13:33:26Z</time>
      </trkpt>
      <trkpt lat="45.22497" lon="6.03139">
        <ele>2052.399902344</ele>
        <time>2011-12-26T13:33:30Z</time>
      </trkpt>
      <trkpt lat="45.22508" lon="6.03149">
        <ele>2054</ele>
        <time>2011-12-26T13:33:35Z</time>
      </trkpt>
      <trkpt lat="45.22526" lon="6.03129">
        <ele>2039</ele>
        <time>2011-12-26T13:33:40Z</time>
      </trkpt>
      <trkpt lat="45.22528" lon="6.03093">
        <ele>2020.800048828</ele>
        <time>2011-12-26T13:33:45Z</time>
      </trkpt>
      <trkpt lat="45.22544" lon="6.03058">
        <ele>2005.199951172</ele>
        <time>2011-12-26T13:33:51Z</time>
      </trkpt>
      <trkpt lat="45.22543" lon="6.03047">
        <ele>2001.800048828</ele>
        <time>2011-12-26T13:33:54Z</time>
      </trkpt>
      <trkpt lat="45.22551" lon="6.03067">
        <ele>2007.400024414</ele>
        <time>2011-12-26T13:34:23Z</time>
      </trkpt>
      <trkpt lat="45.22537" lon="6.03041">
        <ele>2000.400024414</ele>
        <time>2011-12-26T13:35:13Z</time>
      </trkpt>
      <trkpt lat="45.22542" lon="6.03048">
        <ele>2002.199951172</ele>
        <time>2011-12-26T13:35:35Z</time>
      </trkpt>
      <trkpt lat="45.22554" lon="6.03046">
        <ele>2000.199951172</ele>
        <time>2011-12-26T13:35:55Z</time>
      </trkpt>
      <trkpt lat="45.2257" lon="6.03023">
        <ele>1991.800048828</ele>
        <time>2011-12-26T13:35:58Z</time>
      </trkpt>
      <trkpt lat="45.22576" lon="6.02996">
        <ele>1983.199951172</ele>
        <time>2011-12-26T13:36:01Z</time>
      </trkpt>
      <trkpt lat="45.22552" lon="6.02939">
        <ele>1969.199951172</ele>
        <time>2011-12-26T13:36:07Z</time>
      </trkpt>
      <trkpt lat="45.22563" lon="6.02854">
        <ele>1943.599975586</ele>
        <time>2011-12-26T13:36:15Z</time>
      </trkpt>
      <trkpt lat="45.22601" lon="6.02806">
        <ele>1922.199951172</ele>
        <time>2011-12-26T13:36:23Z</time>
      </trkpt>
      <trkpt lat="45.2261" lon="6.02816">
        <ele>1925.199951172</ele>
        <time>2011-12-26T13:36:54Z</time>
      </trkpt>
      <trkpt lat="45.22604" lon="6.02814">
        <ele>1925</ele>
        <time>2011-12-26T13:37:22Z</time>
      </trkpt>
      <trkpt lat="45.22635" lon="6.02814">
        <ele>1922</ele>
        <time>2011-12-26T13:37:32Z</time>
      </trkpt>
      <trkpt lat="45.2266" lon="6.02825">
        <ele>1923.800048828</ele>
        <time>2011-12-26T13:37:39Z</time>
      </trkpt>
      <trkpt lat="45.22673" lon="6.02792">
        <ele>1912.199951172</ele>
        <time>2011-12-26T13:37:46Z</time>
      </trkpt>
      <trkpt lat="45.2268" lon="6.02751">
        <ele>1898.599975586</ele>
        <time>2011-12-26T13:37:50Z</time>
      </trkpt>
      <trkpt lat="45.22704" lon="6.02709">
        <ele>1895.599975586</ele>
        <time>2011-12-26T13:37:55Z</time>
      </trkpt>
      <trkpt lat="45.22691" lon="6.02667">
        <ele>1885.400024414</ele>
        <time>2011-12-26T13:38:00Z</time>
      </trkpt>
      <trkpt lat="45.22692" lon="6.02642">
        <ele>1885.400024414</ele>
        <time>2011-12-26T13:38:05Z</time>
      </trkpt>
      <trkpt lat="45.22643" lon="6.02618">
        <ele>1876.599975586</ele>
        <time>2011-12-26T13:38:42Z</time>
      </trkpt>
      <trkpt lat="45.22606" lon="6.02584">
        <ele>1868.199951172</ele>
        <time>2011-12-26T13:38:53Z</time>
      </trkpt>
      <trkpt lat="45.22585" lon="6.02582">
        <ele>1864.199951172</ele>
        <time>2011-12-26T13:38:58Z</time>
      </trkpt>
      <trkpt lat="45.22583" lon="6.02554">
        <ele>1861.599975586</ele>
        <time>2011-12-26T13:39:01Z</time>
      </trkpt>
      <trkpt lat="45.22596" lon="6.02526">
        <ele>1862.199951172</ele>
        <time>2011-12-26T13:39:05Z</time>
      </trkpt>
      <trkpt lat="45.22599" lon="6.02502">
        <ele>1861.199951172</ele>
        <time>2011-12-26T13:39:08Z</time>
      </trkpt>
      <trkpt lat="45.22572" lon="6.02453">
        <ele>1856.599975586</ele>
        <time>2011-12-26T13:39:15Z</time>
      </trkpt>
      <trkpt lat="45.22488" lon="6.0238">
        <ele>1829.199951172</ele>
        <time>2011-12-26T13:39:31Z</time>
      </trkpt>
      <trkpt lat="45.22478" lon="6.02314">
        <ele>1822</ele>
        <time>2011-12-26T13:39:39Z</time>
      </trkpt>
      <trkpt lat="45.22475" lon="6.0233">
        <ele>1821</ele>
        <time>2011-12-26T13:39:54Z</time>
      </trkpt>
      <trkpt lat="45.22453" lon="6.02335">
        <ele>1811.199951172</ele>
        <time>2011-12-26T13:40:12Z</time>
      </trkpt>
      <trkpt lat="45.22446" lon="6.02315">
        <ele>1806.599975586</ele>
        <time>2011-12-26T13:40:15Z</time>
      </trkpt>
      <trkpt lat="45.22424" lon="6.02294">
        <ele>1794.400024414</ele>
        <time>2011-12-26T13:40:21Z</time>
      </trkpt>
      <trkpt lat="45.22417" lon="6.02304">
        <ele>1791.599975586</ele>
        <time>2011-12-26T13:40:24Z</time>
      </trkpt>
      <trkpt lat="45.22403" lon="6.02268">
        <ele>1783.199951172</ele>
        <time>2011-12-26T13:40:30Z</time>
      </trkpt>
      <trkpt lat="45.22404" lon="6.02255">
        <ele>1782.199951172</ele>
        <time>2011-12-26T13:40:33Z</time>
      </trkpt>
      <trkpt lat="45.22406" lon="6.02263">
        <ele>1784</ele>
        <time>2011-12-26T13:41:05Z</time>
      </trkpt>
      <trkpt lat="45.22401" lon="6.02258">
        <ele>1781.599975586</ele>
        <time>2011-12-26T13:41:07Z</time>
      </trkpt>
      <trkpt lat="45.2236" lon="6.02279">
        <ele>1769</ele>
        <time>2011-12-26T13:41:13Z</time>
      </trkpt>
      <trkpt lat="45.22344" lon="6.02267">
        <ele>1760.800048828</ele>
        <time>2011-12-26T13:41:16Z</time>
      </trkpt>
      <trkpt lat="45.22308" lon="6.02208">
        <ele>1743.199951172</ele>
        <time>2011-12-26T13:41:24Z</time>
      </trkpt>
      <trkpt lat="45.22305" lon="6.02176">
        <ele>1738.599975586</ele>
        <time>2011-12-26T13:41:28Z</time>
      </trkpt>
      <trkpt lat="45.22291" lon="6.0216">
        <ele>1735</ele>
        <time>2011-12-26T13:41:31Z</time>
      </trkpt>
      <trkpt lat="45.22285" lon="6.02131">
        <ele>1731.800048828</ele>
        <time>2011-12-26T13:41:37Z</time>
      </trkpt>
      <trkpt lat="45.22245" lon="6.02029">
        <ele>1712.599975586</ele>
        <time>2011-12-26T13:42:26Z</time>
      </trkpt>
      <trkpt lat="45.22263" lon="6.0184">
        <ele>1696.400024414</ele>
        <time>2011-12-26T13:42:50Z</time>
      </trkpt>
      <trkpt lat="45.22276" lon="6.01811">
        <ele>1698.599975586</ele>
        <time>2011-12-26T13:42:55Z</time>
      </trkpt>
      <trkpt lat="45.22282" lon="6.01774">
        <ele>1696.599975586</ele>
        <time>2011-12-26T13:42:59Z</time>
      </trkpt>
      <trkpt lat="45.2226" lon="6.01606">
        <ele>1685.599975586</ele>
        <time>2011-12-26T13:43:30Z</time>
      </trkpt>
      <trkpt lat="45.22224" lon="6.01425">
        <ele>1674</ele>
        <time>2011-12-26T13:44:18Z</time>
      </trkpt>
      <trkpt lat="45.22235" lon="6.01387">
        <ele>1669.800048828</ele>
        <time>2011-12-26T13:44:23Z</time>
      </trkpt>
      <trkpt lat="45.22275" lon="6.0135">
        <ele>1673.800048828</ele>
        <time>2011-12-26T13:44:30Z</time>
      </trkpt>
      <trkpt lat="45.22282" lon="6.01297">
        <ele>1663.800048828</ele>
        <time>2011-12-26T13:44:37Z</time>
      </trkpt>
      <trkpt lat="45.22238" lon="6.01303">
        <ele>1653.400024414</ele>
        <time>2011-12-26T13:44:44Z</time>
      </trkpt>
      <trkpt lat="45.22224" lon="6.01281">
        <ele>1646.800048828</ele>
        <time>2011-12-26T13:44:47Z</time>
      </trkpt>
      <trkpt lat="45.22241" lon="6.01229">
        <ele>1637.199951172</ele>
        <time>2011-12-26T13:44:52Z</time>
      </trkpt>
      <trkpt lat="45.22264" lon="6.01198">
        <ele>1636.400024414</ele>
        <time>2011-12-26T13:44:57Z</time>
      </trkpt>
      <trkpt lat="45.22266" lon="6.01183">
        <ele>1634.199951172</ele>
        <time>2011-12-26T13:44:59Z</time>
      </trkpt>
      <trkpt lat="45.2225" lon="6.01155">
        <ele>1624.599975586</ele>
        <time>2011-12-26T13:45:03Z</time>
      </trkpt>
      <trkpt lat="45.22234" lon="6.01075">
        <ele>1612.599975586</ele>
        <time>2011-12-26T13:45:12Z</time>
      </trkpt>
      <trkpt lat="45.22253" lon="6.00948">
        <ele>1590</ele>
        <time>2011-12-26T13:45:25Z</time>
      </trkpt>
      <trkpt lat="45.22276" lon="6.0092">
        <ele>1593.400024414</ele>
        <time>2011-12-26T13:45:33Z</time>
      </trkpt>
      <trkpt lat="45.2228" lon="6.00899">
        <ele>1590.599975586</ele>
        <time>2011-12-26T13:45:39Z</time>
      </trkpt>
      <trkpt lat="45.22244" lon="6.00898">
        <ele>1579.599975586</ele>
        <time>2011-12-26T13:45:57Z</time>
      </trkpt>
      <trkpt lat="45.22241" lon="6.00892">
        <ele>1578.599975586</ele>
        <time>2011-12-26T13:46:00Z</time>
      </trkpt>
      <trkpt lat="45.22246" lon="6.00893">
        <ele>1578.199951172</ele>
        <time>2011-12-26T13:46:13Z</time>
      </trkpt>
      <trkpt lat="45.22245" lon="6.00885">
        <ele>1576.800048828</ele>
        <time>2011-12-26T13:46:44Z</time>
      </trkpt>
      <trkpt lat="45.22247" lon="6.00892">
        <ele>1578</ele>
        <time>2011-12-26T13:47:10Z</time>
      </trkpt>
      <trkpt lat="45.22224" lon="6.00825">
        <ele>1565.199951172</ele>
        <time>2011-12-26T13:47:19Z</time>
      </trkpt>
      <trkpt lat="45.22198" lon="6.00773">
        <ele>1557.199951172</ele>
        <time>2011-12-26T13:47:26Z</time>
      </trkpt>
      <trkpt lat="45.2219" lon="6.00693">
        <ele>1543.400024414</ele>
        <time>2011-12-26T13:47:35Z</time>
      </trkpt>
      <trkpt lat="45.22196" lon="6.00631">
        <ele>1529.800048828</ele>
        <time>2011-12-26T13:47:43Z</time>
      </trkpt>
      <trkpt lat="45.22191" lon="6.00594">
        <ele>1522.800048828</ele>
        <time>2011-12-26T13:47:47Z</time>
      </trkpt>
      <trkpt lat="45.2219" lon="6.00503">
        <ele>1505.800048828</ele>
        <time>2011-12-26T13:47:58Z</time>
      </trkpt>
      <trkpt lat="45.22194" lon="6.00508">
        <ele>1505.400024414</ele>
        <time>2011-12-26T13:48:00Z</time>
      </trkpt>
      <trkpt lat="45.2221" lon="6.00498">
        <ele>1497.599975586</ele>
        <time>2011-12-26T13:48:06Z</time>
      </trkpt>
      <trkpt lat="45.22228" lon="6.00508">
        <ele>1493</ele>
        <time>2011-12-26T13:48:33Z</time>
      </trkpt>
      <trkpt lat="45.22236" lon="6.00446">
        <ele>1476.400024414</ele>
        <time>2011-12-26T13:48:59Z</time>
      </trkpt>
      <trkpt lat="45.22251" lon="6.00419">
        <ele>1464.400024414</ele>
        <time>2011-12-26T13:49:03Z</time>
      </trkpt>
      <trkpt lat="45.22298" lon="6.00374">
        <ele>1448.400024414</ele>
        <time>2011-12-26T13:49:14Z</time>
      </trkpt>
      <trkpt lat="45.22306" lon="6.00351">
        <ele>1442.800048828</ele>
        <time>2011-12-26T13:49:17Z</time>
      </trkpt>
      <trkpt lat="45.22315" lon="6.00283">
        <ele>1431.800048828</ele>
        <time>2011-12-26T13:49:23Z</time>
      </trkpt>
      <trkpt lat="45.22308" lon="6.00247">
        <ele>1429.199951172</ele>
        <time>2011-12-26T13:49:27Z</time>
      </trkpt>
      <trkpt lat="45.22298" lon="6.00227">
        <ele>1429.400024414</ele>
        <time>2011-12-26T13:49:30Z</time>
      </trkpt>
      <trkpt lat="45.22306" lon="6.00199">
        <ele>1424.400024414</ele>
        <time>2011-12-26T13:49:33Z</time>
      </trkpt>
      <trkpt lat="45.22321" lon="6.00193">
        <ele>1418.400024414</ele>
        <time>2011-12-26T13:49:35Z</time>
      </trkpt>
      <trkpt lat="45.22376" lon="6.00148">
        <ele>1410</ele>
        <time>2011-12-26T13:49:43Z</time>
      </trkpt>
      <trkpt lat="45.22407" lon="6.00137">
        <ele>1407.599975586</ele>
        <time>2011-12-26T13:49:47Z</time>
      </trkpt>
      <trkpt lat="45.22472" lon="6.00054">
        <ele>1401</ele>
        <time>2011-12-26T13:49:59Z</time>
      </trkpt>
      <trkpt lat="45.22494" lon="6.00014">
        <ele>1393.599975586</ele>
        <time>2011-12-26T13:50:04Z</time>
      </trkpt>
      <trkpt lat="45.22506" lon="5.99972">
        <ele>1389.400024414</ele>
        <time>2011-12-26T13:50:08Z</time>
      </trkpt>
      <trkpt lat="45.22533" lon="5.99778">
        <ele>1369.599975586</ele>
        <time>2011-12-26T13:50:28Z</time>
      </trkpt>
      <trkpt lat="45.22523" lon="5.99776">
        <ele>1363.599975586</ele>
        <time>2011-12-26T13:50:31Z</time>
      </trkpt>
      <trkpt lat="45.22524" lon="5.99803">
        <ele>1368</ele>
        <time>2011-12-26T13:50:34Z</time>
      </trkpt>
      <trkpt lat="45.22516" lon="5.99825">
        <ele>1367.400024414</ele>
        <time>2011-12-26T13:50:37Z</time>
      </trkpt>
      <trkpt lat="45.22473" lon="5.99888">
        <ele>1369</ele>
        <time>2011-12-26T13:50:51Z</time>
      </trkpt>
      <trkpt lat="45.22452" lon="5.99895">
        <ele>1369.199951172</ele>
        <time>2011-12-26T13:50:56Z</time>
      </trkpt>
      <trkpt lat="45.22444" lon="5.99884">
        <ele>1366</ele>
        <time>2011-12-26T13:50:59Z</time>
      </trkpt>
      <trkpt lat="45.22443" lon="5.99866">
        <ele>1361.800048828</ele>
        <time>2011-12-26T13:51:02Z</time>
      </trkpt>
      <trkpt lat="45.2245" lon="5.9985">
        <ele>1358.599975586</ele>
        <time>2011-12-26T13:51:05Z</time>
      </trkpt>
      <trkpt lat="45.22489" lon="5.9982">
        <ele>1356.599975586</ele>
        <time>2011-12-26T13:51:15Z</time>
      </trkpt>
      <trkpt lat="45.22499" lon="5.99794">
        <ele>1353.199951172</ele>
        <time>2011-12-26T13:51:19Z</time>
      </trkpt>
      <trkpt lat="45.22509" lon="5.99688">
        <ele>1340.199951172</ele>
        <time>2011-12-26T13:51:33Z</time>
      </trkpt>
      <trkpt lat="45.22506" lon="5.99623">
        <ele>1327.800048828</ele>
        <time>2011-12-26T13:51:40Z</time>
      </trkpt>
      <trkpt lat="45.22523" lon="5.99563">
        <ele>1324.400024414</ele>
        <time>2011-12-26T13:51:46Z</time>
      </trkpt>
      <trkpt lat="45.22551" lon="5.99529">
        <ele>1326.400024414</ele>
        <time>2011-12-26T13:51:51Z</time>
      </trkpt>
      <trkpt lat="45.22628" lon="5.9948">
        <ele>1330.400024414</ele>
        <time>2011-12-26T13:52:00Z</time>
      </trkpt>
      <trkpt lat="45.22626" lon="5.99461">
        <ele>1325</ele>
        <time>2011-12-26T13:52:01Z</time>
      </trkpt>
      <trkpt lat="45.22638" lon="5.99433">
        <ele>1318</ele>
        <time>2011-12-26T13:52:04Z</time>
      </trkpt>
      <trkpt lat="45.22678" lon="5.99413">
        <ele>1317</ele>
        <time>2011-12-26T13:52:09Z</time>
      </trkpt>
      <trkpt lat="45.22744" lon="5.99353">
        <ele>1307.800048828</ele>
        <time>2011-12-26T13:52:19Z</time>
      </trkpt>
      <trkpt lat="45.22779" lon="5.9931">
        <ele>1295.599975586</ele>
        <time>2011-12-26T13:52:25Z</time>
      </trkpt>
      <trkpt lat="45.22842" lon="5.99262">
        <ele>1288.400024414</ele>
        <time>2011-12-26T13:52:34Z</time>
      </trkpt>
      <trkpt lat="45.22914" lon="5.99169">
        <ele>1272.400024414</ele>
        <time>2011-12-26T13:52:46Z</time>
      </trkpt>
      <trkpt lat="45.22928" lon="5.9916">
        <ele>1270.800048828</ele>
        <time>2011-12-26T13:52:48Z</time>
      </trkpt>
      <trkpt lat="45.22962" lon="5.9916">
        <ele>1275</ele>
        <time>2011-12-26T13:52:52Z</time>
      </trkpt>
      <trkpt lat="45.23068" lon="5.99116">
        <ele>1268.599975586</ele>
        <time>2011-12-26T13:53:05Z</time>
      </trkpt>
      <trkpt lat="45.23128" lon="5.99073">
        <ele>1264</ele>
        <time>2011-12-26T13:53:13Z</time>
      </trkpt>
      <trkpt lat="45.23152" lon="5.99">
        <ele>1252.599975586</ele>
        <time>2011-12-26T13:53:20Z</time>
      </trkpt>
      <trkpt lat="45.2321" lon="5.98895">
        <ele>1239.599975586</ele>
        <time>2011-12-26T13:53:31Z</time>
      </trkpt>
      <trkpt lat="45.2323" lon="5.98876">
        <ele>1236.599975586</ele>
        <time>2011-12-26T13:53:34Z</time>
      </trkpt>
      <trkpt lat="45.23244" lon="5.9887">
        <ele>1236</ele>
        <time>2011-12-26T13:53:36Z</time>
      </trkpt>
      <trkpt lat="45.23273" lon="5.98876">
        <ele>1237.400024414</ele>
        <time>2011-12-26T13:53:39Z</time>
      </trkpt>
      <trkpt lat="45.23414" lon="5.98761">
        <ele>1215</ele>
        <time>2011-12-26T13:53:58Z</time>
      </trkpt>
      <trkpt lat="45.23432" lon="5.9874">
        <ele>1214.599975586</ele>
        <time>2011-12-26T13:54:01Z</time>
      </trkpt>
      <trkpt lat="45.2347" lon="5.98671">
        <ele>1208.199951172</ele>
        <time>2011-12-26T13:54:09Z</time>
      </trkpt>
      <trkpt lat="45.23517" lon="5.9861">
        <ele>1204.400024414</ele>
        <time>2011-12-26T13:54:17Z</time>
      </trkpt>
      <trkpt lat="45.23549" lon="5.98556">
        <ele>1195</ele>
        <time>2011-12-26T13:54:23Z</time>
      </trkpt>
      <trkpt lat="45.23586" lon="5.98517">
        <ele>1184.800048828</ele>
        <time>2011-12-26T13:54:29Z</time>
      </trkpt>
      <trkpt lat="45.23621" lon="5.98506">
        <ele>1181.400024414</ele>
        <time>2011-12-26T13:54:33Z</time>
      </trkpt>
      <trkpt lat="45.23648" lon="5.98486">
        <ele>1173.199951172</ele>
        <time>2011-12-26T13:54:37Z</time>
      </trkpt>
      <trkpt lat="45.23698" lon="5.985">
        <ele>1181.199951172</ele>
        <time>2011-12-26T13:54:44Z</time>
      </trkpt>
      <trkpt lat="45.2372" lon="5.98487">
        <ele>1177.400024414</ele>
        <time>2011-12-26T13:54:47Z</time>
      </trkpt>
      <trkpt lat="45.23762" lon="5.98442">
        <ele>1165.199951172</ele>
        <time>2011-12-26T13:54:55Z</time>
      </trkpt>
      <trkpt lat="45.23805" lon="5.98426">
        <ele>1161.400024414</ele>
        <time>2011-12-26T13:55:02Z</time>
      </trkpt>
      <trkpt lat="45.23876" lon="5.98436">
        <ele>1165.599975586</ele>
        <time>2011-12-26T13:55:13Z</time>
      </trkpt>
      <trkpt lat="45.23902" lon="5.98417">
        <ele>1160</ele>
        <time>2011-12-26T13:55:17Z</time>
      </trkpt>
      <trkpt lat="45.23919" lon="5.98363">
        <ele>1144.800048828</ele>
        <time>2011-12-26T13:56:15Z</time>
      </trkpt>
      <trkpt lat="45.23925" lon="5.98372">
        <ele>1148.400024414</ele>
        <time>2011-12-26T13:56:24Z</time>
      </trkpt>
      <trkpt lat="45.23921" lon="5.98369">
        <ele>1146.800048828</ele>
        <time>2011-12-26T13:56:31Z</time>
      </trkpt>
      <trkpt lat="45.23924" lon="5.98373">
        <ele>1148.400024414</ele>
        <time>2011-12-26T13:56:45Z</time>
      </trkpt>
      <trkpt lat="45.23931" lon="5.98354">
        <ele>1144</ele>
        <time>2011-12-26T13:56:59Z</time>
      </trkpt>
      <trkpt lat="45.23965" lon="5.98317">
        <ele>1136.800048828</ele>
        <time>2011-12-26T13:57:37Z</time>
      </trkpt>
      <trkpt lat="45.24016" lon="5.98299">
        <ele>1138</ele>
        <time>2011-12-26T13:58:22Z</time>
      </trkpt>
      <trkpt lat="45.24038" lon="5.983">
        <ele>1140.400024414</ele>
        <time>2011-12-26T13:58:30Z</time>
      </trkpt>
      <trkpt lat="45.24062" lon="5.98282">
        <ele>1138.199951172</ele>
        <time>2011-12-26T13:58:35Z</time>
      </trkpt>
      <trkpt lat="45.24079" lon="5.98248">
        <ele>1132</ele>
        <time>2011-12-26T13:58:40Z</time>
      </trkpt>
      <trkpt lat="45.24085" lon="5.98182">
        <ele>1118</ele>
        <time>2011-12-26T13:58:48Z</time>
      </trkpt>
      <trkpt lat="45.24095" lon="5.98142">
        <ele>1109.599975586</ele>
        <time>2011-12-26T13:58:55Z</time>
      </trkpt>
      <trkpt lat="45.24117" lon="5.98125">
        <ele>1109.400024414</ele>
        <time>2011-12-26T13:59:02Z</time>
      </trkpt>
      <trkpt lat="45.24114" lon="5.98121">
        <ele>1107.800048828</ele>
        <time>2011-12-26T13:59:04Z</time>
      </trkpt>
      <trkpt lat="45.24146" lon="5.98108">
        <ele>1111.400024414</ele>
        <time>2011-12-26T13:59:44Z</time>
      </trkpt>
      <trkpt lat="45.24175" lon="5.98084">
        <ele>1111.800048828</ele>
        <time>2011-12-26T14:00:11Z</time>
      </trkpt>
      <trkpt lat="45.24181" lon="5.9806">
        <ele>1106.199951172</ele>
        <time>2011-12-26T14:00:26Z</time>
      </trkpt>
      <trkpt lat="45.24192" lon="5.98047">
        <ele>1104.599975586</ele>
        <time>2011-12-26T14:00:38Z</time>
      </trkpt>
      <trkpt lat="45.24251" lon="5.98021">
        <ele>1107.599975586</ele>
        <time>2011-12-26T14:01:39Z</time>
      </trkpt>
      <trkpt lat="45.24251" lon="5.98013">
        <ele>1105</ele>
        <time>2011-12-26T14:01:46Z</time>
      </trkpt>
      <trkpt lat="45.2427" lon="5.98007">
        <ele>1104</ele>
        <time>2011-12-26T14:02:09Z</time>
      </trkpt>
      <trkpt lat="45.24269" lon="5.98012">
        <ele>1105.599975586</ele>
        <time>2011-12-26T14:02:18Z</time>
      </trkpt>
      <trkpt lat="45.24291" lon="5.98006">
        <ele>1105</ele>
        <time>2011-12-26T14:02:44Z</time>
      </trkpt>
      <trkpt lat="45.24305" lon="5.97992">
        <ele>1101.599975586</ele>
        <time>2011-12-26T14:03:01Z</time>
      </trkpt>
      <trkpt lat="45.24371" lon="5.97959">
        <ele>1096.400024414</ele>
        <time>2011-12-26T14:04:11Z</time>
      </trkpt>
      <trkpt lat="45.24378" lon="5.9795">
        <ele>1093.800048828</ele>
        <time>2011-12-26T14:04:23Z</time>
      </trkpt>
      <trkpt lat="45.24409" lon="5.9794">
        <ele>1092.199951172</ele>
        <time>2011-12-26T14:04:52Z</time>
      </trkpt>
      <trkpt lat="45.24441" lon="5.97919">
        <ele>1087.199951172</ele>
        <time>2011-12-26T14:05:21Z</time>
      </trkpt>
      <trkpt lat="45.24451" lon="5.9792">
        <ele>1088</ele>
        <time>2011-12-26T14:05:27Z</time>
      </trkpt>
      <trkpt lat="45.24485" lon="5.97897">
        <ele>1085</ele>
        <time>2011-12-26T14:06:19Z</time>
      </trkpt>
    </trkseg>
  </trk>
</gpx>